Time;durP1;ratioP1;P1;durP2;ratioP2;P2;SDS_P1;SDS_P2;PMS_P1;PMS_P2;Temp;Humidity;BMP_temperature;BMP_pressure;BME280_temperature;BME280_humidity;BME280_pressure;Samples;Min_cycle;Max_cycle;Signal;HPM_P1;HPM_P2
2021/03/17 00:01:51;;;;;;;;;;;5.80;99.90;;;;;;4968133;28;19921;-74
2021/03/17 00:04:17;;;;;;;;;;;5.70;99.90;;;;;;4952285;28;19926;-73
2021/03/17 00:06:42;;;;;;;;;;;5.80;99.90;;;;;;4969388;28;19926;-73
2021/03/17 00:09:08;;;;;;;;;;;5.80;99.90;;;;;;4969260;28;19968;-74
2021/03/17 00:11:33;;;;;;;;;;;5.80;99.90;;;;;;4950539;28;19953;-74
2021/03/17 00:13:59;;;;;;;;;;;5.80;99.90;;;;;;4950905;28;19921;-74
2021/03/17 00:16:27;;;;;;;;;;;5.80;99.90;;;;;;4932069;28;19914;-73
2021/03/17 00:18:55;;;;;;;;;;;5.80;99.90;;;;;;4951130;28;20344;-73
2021/03/17 00:21:24;;;;;;;;;;;5.80;99.90;;;;;;4970004;28;19917;-73
2021/03/17 00:23:52;;;;;;;;;;;5.80;99.90;;;;;;4952062;28;19933;-73
2021/03/17 00:26:17;;;;;;;;;;;5.80;99.90;;;;;;4972120;28;19921;-73
2021/03/17 00:28:43;;;;;;;;;;;5.70;99.90;;;;;;4956305;28;19918;-74
2021/03/17 00:31:10;;;;;;;;;;;5.70;99.90;;;;;;4973079;28;19910;-74
2021/03/17 00:33:41;;;;;;;;;;;5.70;99.90;;;;;;4971988;28;20570;-75
2021/03/17 00:36:07;;;;;;;;;;;5.70;99.90;;;;;;4954955;28;19910;-73
2021/03/17 00:38:43;;;;;;;;;;;5.70;99.90;;;;;;4950053;28;19918;-73
2021/03/17 00:41:09;;;;;;;;;;;5.70;99.90;;;;;;4924779;28;19918;-74
2021/03/17 00:43:37;;;;;;;;;;;5.70;99.90;;;;;;4961610;28;19952;-73
2021/03/17 00:46:03;;;;;;;;;;;5.60;99.90;;;;;;4961395;28;19918;-73
2021/03/17 00:48:28;;;;;;;;;;;5.50;99.90;;;;;;4960251;28;19926;-73
2021/03/17 00:50:54;;;;;;;;;;;5.50;99.90;;;;;;4942819;28;20271;-74
2021/03/17 00:53:31;;;;;;;;;;;5.50;99.90;;;;;;4964613;28;20004;-74
2021/03/17 00:55:57;;;;;;;;;;;5.50;99.90;;;;;;4938612;28;19910;-73
2021/03/17 00:58:26;;;;;;;;;;;5.40;99.90;;;;;;4954469;28;20068;-74
2021/03/17 01:00:54;;;;;;;;;;;5.40;99.90;;;;;;4953652;28;19914;-73
2021/03/17 01:03:19;;;;;;;;;;;5.50;99.90;;;;;;4972007;28;19918;-73
2021/03/17 01:05:45;;;;;;;;;;;5.40;99.90;;;;;;4971185;28;19917;-73
2021/03/17 01:08:10;;;;;;;;;;;5.40;99.90;;;;;;4954507;28;19925;-74
2021/03/17 01:10:43;;;;;;;;;;;5.40;99.90;;;;;;4963665;28;19917;-73
2021/03/17 01:13:08;;;;;;;;;;;5.40;99.90;;;;;;4959991;28;19918;-73
2021/03/17 01:15:36;;;;;;;;;;;5.40;99.90;;;;;;4959208;28;19914;-74
2021/03/17 01:18:05;;;;;;;;;;;5.40;99.90;;;;;;4938866;28;19910;-73
2021/03/17 01:20:30;;;;;;;;;;;5.40;99.90;;;;;;4959765;28;19918;-73
2021/03/17 01:22:56;;;;;;;;;;;5.40;99.90;;;;;;4960146;28;19922;-74
2021/03/17 01:25:33;;;;;;;;;;;5.40;99.90;;;;;;4960511;28;19937;-73
2021/03/17 01:28:03;;;;;;;;;;;5.40;99.90;;;;;;4961456;28;19992;-73
2021/03/17 01:30:31;;;;;;;;;;;5.40;99.90;;;;;;4953187;28;19949;-73
2021/03/17 01:32:59;;;;;;;;;;;5.40;99.90;;;;;;4947825;28;19924;-73
2021/03/17 01:35:24;;;;;;;;;;;5.40;99.90;;;;;;4942558;28;20255;-74
2021/03/17 01:37:50;;;;;;;;;;;5.30;99.90;;;;;;4957574;28;19914;-74
2021/03/17 01:40:18;;;;;;;;;;;5.30;99.90;;;;;;4959047;28;19918;-73
2021/03/17 01:42:43;;;;;;;;;;;5.30;99.90;;;;;;4962376;28;19922;-74
2021/03/17 01:45:10;;;;;;;;;;;5.30;99.90;;;;;;4971650;28;19985;-74
2021/03/17 01:47:38;;;;;;;;;;;5.20;99.90;;;;;;4945404;28;19918;-75
2021/03/17 01:50:10;;;;;;;;;;;5.20;99.90;;;;;;4967211;28;19968;-74
2021/03/17 01:52:38;;;;;;;;;;;5.20;99.90;;;;;;4970211;28;19960;-74
2021/03/17 01:55:04;;;;;;;;;;;5.20;99.90;;;;;;4953605;28;19918;-75
2021/03/17 01:57:30;;;;;;;;;;;5.20;99.90;;;;;;4969852;28;19925;-75
2021/03/17 01:59:55;;;;;;;;;;;5.20;99.90;;;;;;4970960;28;19914;-75
2021/03/17 02:02:23;;;;;;;;;;;5.20;99.90;;;;;;4963666;28;19932;-74
2021/03/17 02:04:49;;;;;;;;;;;5.20;99.90;;;;;;4927035;28;19926;-74
2021/03/17 02:07:17;;;;;;;;;;;5.10;99.90;;;;;;4959624;28;19938;-75
2021/03/17 02:09:43;;;;;;;;;;;5.20;99.90;;;;;;4959063;28;19917;-74
2021/03/17 02:12:16;;;;;;;;;;;5.20;99.90;;;;;;4959937;28;19952;-74
2021/03/17 02:15:17;;;;;;;;;;;5.20;99.90;;;;;;4958476;28;20063;-74
2021/03/17 02:17:42;;;;;;;;;;;5.30;99.90;;;;;;4867463;29;19923;-74
2021/03/17 02:20:08;;;;;;;;;;;5.20;99.90;;;;;;4939048;28;19918;-74
2021/03/17 02:22:37;;;;;;;;;;;5.20;99.90;;;;;;4958261;28;19973;-74
2021/03/17 02:25:05;;;;;;;;;;;5.20;99.90;;;;;;4958890;28;19924;-74
2021/03/17 02:27:36;;;;;;;;;;;5.20;99.90;;;;;;4939171;28;19969;-75
2021/03/17 02:30:06;;;;;;;;;;;5.10;99.90;;;;;;4946986;28;19910;-75
2021/03/17 02:32:40;;;;;;;;;;;5.10;99.90;;;;;;4951961;28;19918;-74
2021/03/17 02:35:08;;;;;;;;;;;5.10;99.90;;;;;;4969619;28;19937;-74
2021/03/17 02:37:36;;;;;;;;;;;5.00;99.90;;;;;;4950541;28;19910;-75
2021/03/17 02:40:04;;;;;;;;;;;5.00;99.90;;;;;;4951900;28;19914;-74
2021/03/17 02:42:35;;;;;;;;;;;5.00;99.90;;;;;;4953210;28;19914;-74
2021/03/17 02:45:03;;;;;;;;;;;5.00;99.90;;;;;;4952847;28;19920;-74
2021/03/17 02:47:30;;;;;;;;;;;5.00;99.90;;;;;;4952849;28;20335;-74
2021/03/17 02:49:55;;;;;;;;;;;4.90;99.90;;;;;;4934348;28;19917;-74
2021/03/17 02:52:23;;;;;;;;;;;4.90;99.90;;;;;;4935823;28;20238;-75
2021/03/17 02:54:49;;;;;;;;;;;4.90;99.90;;;;;;4952813;28;19968;-74
2021/03/17 02:57:20;;;;;;;;;;;4.90;99.90;;;;;;4949299;28;20415;-75
2021/03/17 02:59:50;;;;;;;;;;;4.90;99.90;;;;;;4951470;28;19996;-74
2021/03/17 03:02:15;;;;;;;;;;;4.90;99.90;;;;;;4969074;28;20348;-74
2021/03/17 03:04:41;;;;;;;;;;;4.90;99.90;;;;;;4948208;28;19953;-74
2021/03/17 03:07:11;;;;;;;;;;;4.90;99.90;;;;;;4952793;28;19910;-74
2021/03/17 03:09:37;;;;;;;;;;;4.90;99.90;;;;;;4952601;28;19910;-74
2021/03/17 03:12:03;;;;;;;;;;;4.90;99.90;;;;;;4951595;28;19972;-74
2021/03/17 03:14:28;;;;;;;;;;;4.90;99.90;;;;;;4968968;28;19914;-74
2021/03/17 03:16:55;;;;;;;;;;;4.90;99.90;;;;;;4952400;28;20023;-74
2021/03/17 03:19:22;;;;;;;;;;;4.90;99.90;;;;;;4968474;28;20020;-74
2021/03/17 03:21:48;;;;;;;;;;;4.90;99.90;;;;;;4951303;28;19977;-74
2021/03/17 03:24:16;;;;;;;;;;;4.90;99.90;;;;;;4968710;28;19925;-74
2021/03/17 03:26:42;;;;;;;;;;;5.00;99.90;;;;;;4951441;28;20009;-75
2021/03/17 03:29:07;;;;;;;;;;;5.00;99.90;;;;;;4969853;28;20001;-74
2021/03/17 03:31:33;;;;;;;;;;;5.00;99.90;;;;;;4968078;28;19993;-75
2021/03/17 03:33:58;;;;;;;;;;;5.00;99.90;;;;;;4967158;28;21777;-74
2021/03/17 03:36:26;;;;;;;;;;;5.00;99.90;;;;;;4968207;28;20060;-74
2021/03/17 03:38:52;;;;;;;;;;;5.00;99.90;;;;;;4952249;28;19914;-75
2021/03/17 03:41:20;;;;;;;;;;;5.00;99.90;;;;;;4969353;28;20308;-74
2021/03/17 03:43:45;;;;;;;;;;;5.00;99.90;;;;;;4949640;28;19932;-74
2021/03/17 03:46:13;;;;;;;;;;;5.00;99.90;;;;;;4957595;28;19918;-74
2021/03/17 03:48:39;;;;;;;;;;;4.90;99.90;;;;;;4957079;28;19918;-74
2021/03/17 03:51:04;;;;;;;;;;;4.90;99.90;;;;;;4936595;28;19937;-74
2021/03/17 03:53:36;;;;;;;;;;;4.80;99.90;;;;;;4941558;28;20343;-75
2021/03/17 03:56:05;;;;;;;;;;;4.80;99.90;;;;;;4958339;28;19998;-74
2021/03/17 03:58:31;;;;;;;;;;;4.70;99.90;;;;;;4956819;28;19972;-75
2021/03/17 04:00:59;;;;;;;;;;;4.70;99.90;;;;;;4959732;28;19922;-74
2021/03/17 04:03:25;;;;;;;;;;;4.60;99.90;;;;;;4960784;28;19921;-74
2021/03/17 04:05:52;;;;;;;;;;;4.60;99.90;;;;;;4944315;28;20386;-74
2021/03/17 04:08:18;;;;;;;;;;;4.50;99.90;;;;;;4961710;28;20016;-74
2021/03/17 04:10:51;;;;;;;;;;;4.50;99.90;;;;;;4940056;28;19914;-74
2021/03/17 04:13:16;;;;;;;;;;;4.40;99.90;;;;;;4940503;28;19914;-74
2021/03/17 04:15:42;;;;;;;;;;;4.40;99.90;;;;;;4960638;28;20370;-74
2021/03/17 04:18:09;;;;;;;;;;;4.40;99.90;;;;;;4928526;28;19919;-75
2021/03/17 04:20:36;;;;;;;;;;;4.30;99.90;;;;;;4960254;28;19914;-74
2021/03/17 04:23:02;;;;;;;;;;;4.30;99.90;;;;;;4959742;28;19925;-74
2021/03/17 04:25:27;;;;;;;;;;;4.30;99.90;;;;;;4943162;28;20078;-74
2021/03/17 04:27:53;;;;;;;;;;;4.30;99.90;;;;;;4927604;28;19915;-74
2021/03/17 04:30:18;;;;;;;;;;;4.30;99.90;;;;;;4941807;28;19918;-75
2021/03/17 04:32:44;;;;;;;;;;;4.20;99.90;;;;;;4939352;28;19946;-74
2021/03/17 04:35:10;;;;;;;;;;;4.20;99.90;;;;;;4960477;28;19971;-74
2021/03/17 04:37:41;;;;;;;;;;;4.20;99.90;;;;;;4961582;28;19917;-74
2021/03/17 04:40:06;;;;;;;;;;;4.20;99.90;;;;;;4942438;28;19910;-74
2021/03/17 04:42:37;;;;;;;;;;;4.30;99.90;;;;;;4960153;28;19918;-74
2021/03/17 04:45:05;;;;;;;;;;;4.20;99.90;;;;;;4959883;28;19933;-74
2021/03/17 04:47:30;;;;;;;;;;;4.20;99.90;;;;;;4939017;28;19914;-74
2021/03/17 04:49:56;;;;;;;;;;;4.30;99.90;;;;;;4926313;28;19945;-74
2021/03/17 04:52:22;;;;;;;;;;;4.30;99.90;;;;;;4940634;28;19918;-74
2021/03/17 04:54:50;;;;;;;;;;;4.20;99.90;;;;;;4938227;28;19925;-74
2021/03/17 04:57:20;;;;;;;;;;;4.20;99.90;;;;;;4942802;28;19918;-74
2021/03/17 04:59:45;;;;;;;;;;;4.20;99.90;;;;;;4938603;28;19918;-74
2021/03/17 05:02:13;;;;;;;;;;;4.20;99.90;;;;;;4942516;28;19918;-74
2021/03/17 05:04:39;;;;;;;;;;;4.20;99.90;;;;;;4941026;28;19922;-74
2021/03/17 05:07:05;;;;;;;;;;;4.10;99.90;;;;;;4941353;28;19918;-74
2021/03/17 05:09:33;;;;;;;;;;;4.10;99.90;;;;;;4937619;28;19914;-74
2021/03/17 05:12:03;;;;;;;;;;;4.10;99.90;;;;;;4938819;28;19925;-74
2021/03/17 05:14:29;;;;;;;;;;;4.00;99.90;;;;;;4939235;28;20004;-74
2021/03/17 05:16:54;;;;;;;;;;;4.00;99.90;;;;;;4937140;28;20452;-75
2021/03/17 05:19:22;;;;;;;;;;;4.00;99.90;;;;;;4940199;28;20005;-74
2021/03/17 05:21:48;;;;;;;;;;;3.90;99.90;;;;;;4959884;28;19918;-74
2021/03/17 05:24:16;;;;;;;;;;;3.80;99.90;;;;;;4959124;28;21866;-74
2021/03/17 05:26:44;;;;;;;;;;;3.80;99.90;;;;;;4926473;28;19929;-74
2021/03/17 05:29:09;;;;;;;;;;;3.70;99.90;;;;;;4925476;28;19972;-74
2021/03/17 05:31:40;;;;;;;;;;;3.70;99.90;;;;;;4940549;28;19922;-74
2021/03/17 05:34:05;;;;;;;;;;;3.70;99.90;;;;;;4939522;28;19984;-74
2021/03/17 05:36:31;;;;;;;;;;;3.70;99.90;;;;;;4958988;28;20423;-74
2021/03/17 05:38:58;;;;;;;;;;;3.60;99.90;;;;;;4959683;28;19996;-74
2021/03/17 05:41:26;;;;;;;;;;;3.60;99.90;;;;;;4960045;28;19928;-74
2021/03/17 05:43:51;;;;;;;;;;;3.60;99.90;;;;;;4943035;28;19918;-74
2021/03/17 05:46:19;;;;;;;;;;;3.60;99.90;;;;;;4935648;28;20509;-75
2021/03/17 05:48:45;;;;;;;;;;;3.60;99.90;;;;;;4972009;28;19920;-75
2021/03/17 05:51:10;;;;;;;;;;;3.60;99.90;;;;;;4937614;28;19914;-74
2021/03/17 05:53:36;;;;;;;;;;;3.70;99.90;;;;;;4937365;28;19989;-74
2021/03/17 05:56:02;;;;;;;;;;;3.60;99.90;;;;;;4944602;28;19914;-75
2021/03/17 05:58:28;;;;;;;;;;;3.70;99.90;;;;;;4959371;28;19950;-75
2021/03/17 06:00:56;;;;;;;;;;;3.70;99.90;;;;;;4937369;28;20047;-74
2021/03/17 06:03:24;;;;;;;;;;;3.70;99.90;;;;;;4958958;28;19922;-75
2021/03/17 06:05:49;;;;;;;;;;;3.80;99.90;;;;;;4937932;28;19921;-74
2021/03/17 06:08:18;;;;;;;;;;;3.80;99.90;;;;;;4958156;28;19918;-74
2021/03/17 06:10:43;;;;;;;;;;;3.90;99.90;;;;;;4967578;28;19921;-75
2021/03/17 06:13:11;;;;;;;;;;;3.90;99.90;;;;;;4953066;28;19917;-74
2021/03/17 06:15:37;;;;;;;;;;;3.90;99.90;;;;;;4935386;28;19918;-74
2021/03/17 06:18:09;;;;;;;;;;;4.00;99.90;;;;;;4939230;28;20588;-74
2021/03/17 06:20:35;;;;;;;;;;;4.00;99.90;;;;;;4960125;28;19914;-74
2021/03/17 06:23:06;;;;;;;;;;;4.00;99.90;;;;;;4958928;28;20327;-74
2021/03/17 06:25:33;;;;;;;;;;;4.00;99.90;;;;;;4945011;28;19956;-74
2021/03/17 06:27:59;;;;;;;;;;;4.10;99.90;;;;;;4957505;28;19918;-74
2021/03/17 06:30:29;;;;;;;;;;;4.10;99.90;;;;;;4937047;28;20402;-74
2021/03/17 06:33:00;;;;;;;;;;;4.20;99.90;;;;;;4945846;28;19984;-74
2021/03/17 06:35:25;;;;;;;;;;;4.20;99.90;;;;;;4943617;28;19914;-74
2021/03/17 06:37:53;;;;;;;;;;;4.20;99.90;;;;;;4960118;28;19984;-74
2021/03/17 06:40:25;;;;;;;;;;;4.20;99.90;;;;;;4937407;28;20064;-75
2021/03/17 06:42:51;;;;;;;;;;;4.20;99.90;;;;;;4957887;28;19926;-74
2021/03/17 06:45:30;;;;;;;;;;;4.20;99.90;;;;;;4938221;28;20055;-74
2021/03/17 06:47:55;;;;;;;;;;;4.30;99.90;;;;;;4958431;28;20005;-75
2021/03/17 06:50:26;;;;;;;;;;;4.30;99.90;;;;;;4940649;28;19918;-74
2021/03/17 06:52:52;;;;;;;;;;;4.40;99.90;;;;;;4959618;28;19929;-75
2021/03/17 06:55:21;;;;;;;;;;;4.40;99.90;;;;;;4959825;28;20251;-78
2021/03/17 06:57:47;;;;;;;;;;;4.40;99.90;;;;;;4968126;28;19918;-78
2021/03/17 07:00:18;;;;;;;;;;;4.50;99.90;;;;;;4952174;28;19914;-74
2021/03/17 07:02:59;;;;;;;;;;;4.50;99.90;;;;;;4966985;28;20566;-74
2021/03/17 07:05:31;;;;;;;;;;;4.50;99.90;;;;;;4968873;28;19928;-75
2021/03/17 07:07:57;;;;;;;;;;;4.60;99.90;;;;;;4968375;28;19992;-78
2021/03/17 07:10:32;;;;;;;;;;;4.70;99.90;;;;;;4948386;28;20021;-79
2021/03/17 07:12:57;;;;;;;;;;;4.70;99.90;;;;;;4947864;28;20038;-75
2021/03/17 07:15:23;;;;;;;;;;;4.80;99.90;;;;;;4967775;28;20415;-75
2021/03/17 07:17:52;;;;;;;;;;;4.90;99.90;;;;;;4950665;28;19993;-75
2021/03/17 07:20:37;;;;;;;;;;;4.80;99.90;;;;;;4950078;28;19921;-74
2021/03/17 07:23:22;;;;;;;;;;;4.90;99.90;;;;;;4948056;28;19914;-75
2021/03/17 07:26:03;;;;;;;;;;;4.90;99.90;;;;;;4969165;28;20309;-74
2021/03/17 07:28:29;;;;;;;;;;;4.90;99.90;;;;;;4967861;28;19918;-74
2021/03/17 07:30:57;;;;;;;;;;;5.00;99.90;;;;;;4951802;28;19910;-74
2021/03/17 07:33:23;;;;;;;;;;;5.00;99.90;;;;;;4951172;28;19968;-74
2021/03/17 07:35:51;;;;;;;;;;;5.00;99.90;;;;;;4962066;28;19918;-74
2021/03/17 07:38:16;;;;;;;;;;;5.10;99.90;;;;;;4967905;28;19962;-74
2021/03/17 07:40:45;;;;;;;;;;;5.10;99.90;;;;;;4971056;28;19945;-74
2021/03/17 07:43:13;;;;;;;;;;;5.10;99.90;;;;;;4933712;28;20334;-74
2021/03/17 07:45:41;;;;;;;;;;;5.10;99.90;;;;;;4970600;28;19910;-74
2021/03/17 07:48:07;;;;;;;;;;;5.20;99.90;;;;;;4970022;28;19913;-74
2021/03/17 07:50:33;;;;;;;;;;;5.20;99.90;;;;;;4935933;28;20264;-74
2021/03/17 07:53:02;;;;;;;;;;;5.20;99.90;;;;;;4969258;28;19946;-74
2021/03/17 07:55:28;;;;;;;;;;;5.20;99.90;;;;;;4933370;28;20004;-74
2021/03/17 07:57:54;;;;;;;;;;;5.20;99.90;;;;;;4951730;28;19913;-74
2021/03/17 08:00:20;;;;;;;;;;;5.20;99.90;;;;;;4952426;28;19913;-74
2021/03/17 08:02:46;;;;;;;;;;;5.30;99.90;;;;;;4952683;28;20366;-74
2021/03/17 08:05:12;;;;;;;;;;;5.30;99.90;;;;;;4970113;28;19910;-74
2021/03/17 08:07:39;;;;;;;;;;;5.40;99.90;;;;;;4952030;28;19921;-74
2021/03/17 08:10:05;;;;;;;;;;;5.40;99.90;;;;;;4952478;28;19969;-74
2021/03/17 08:12:33;;;;;;;;;;;5.40;99.90;;;;;;4951056;28;19913;-74
2021/03/17 08:14:59;;;;;;;;;;;5.40;99.90;;;;;;4969693;28;19953;-74
2021/03/17 08:17:34;;;;;;;;;;;5.40;99.90;;;;;;4969408;28;20494;-74
2021/03/17 08:20:18;;;;;;;;;;;5.40;99.90;;;;;;4933220;28;19914;-74
2021/03/17 08:22:45;;;;;;;;;;;5.40;99.90;;;;;;4969107;28;19945;-74
2021/03/17 08:25:31;;;;;;;;;;;5.40;99.90;;;;;;4968621;28;19910;-75
2021/03/17 08:28:35;;;;;;;;;;;5.50;99.90;;;;;;4967378;28;19957;-78
2021/03/17 08:31:00;;;;;;;;;;;5.50;99.90;;;;;;4871763;29;19920;-75
2021/03/17 08:33:43;;;;;;;;;;;5.50;99.90;;;;;;4871503;29;19915;-74
2021/03/17 08:36:12;;;;;;;;;;;5.60;99.90;;;;;;4872125;29;19920;-74
2021/03/17 08:38:53;;;;;;;;;;;5.60;99.90;;;;;;4882952;29;19908;-74
2021/03/17 08:41:38;;;;;;;;;;;5.60;99.90;;;;;;4884799;29;19919;-74
2021/03/17 08:44:29;;;;;;;;;;;5.60;99.90;;;;;;4868178;29;19983;-74
2021/03/17 08:46:56;;;;;;;;;;;5.60;99.90;;;;;;4856632;29;19926;-74
2021/03/17 08:49:32;;;;;;;;;;;5.60;99.90;;;;;;4886491;29;20010;-74
2021/03/17 08:52:00;;;;;;;;;;;5.60;99.90;;;;;;4889929;29;19911;-74
2021/03/17 08:54:31;;;;;;;;;;;5.60;99.90;;;;;;4889128;29;20436;-74
2021/03/17 08:56:57;;;;;;;;;;;5.50;99.90;;;;;;4890241;29;19954;-75
2021/03/17 08:59:22;;;;;;;;;;;5.50;99.90;;;;;;4871803;29;20377;-74
2021/03/17 09:01:48;;;;;;;;;;;5.60;99.90;;;;;;4929736;28;19914;-74
2021/03/17 09:04:33;;;;;;;;;;;5.60;99.90;;;;;;4951697;28;19918;-74
2021/03/17 09:07:07;;;;;;;;;;;5.60;99.90;;;;;;4949744;28;19929;-74
2021/03/17 09:09:52;;;;;;;;;;;5.70;99.90;;;;;;4969324;28;19921;-73
2021/03/17 09:12:26;;;;;;;;;;;5.70;99.90;;;;;;4952852;28;19910;-74
2021/03/17 09:15:12;;;;;;;;;;;5.80;99.90;;;;;;4968889;28;19929;-74
2021/03/17 09:17:47;;;;;;;;;;;5.80;99.90;;;;;;4969806;28;19918;-73
2021/03/17 09:20:13;;;;;;;;;;;5.90;99.90;;;;;;4970451;28;19918;-74
2021/03/17 09:22:46;;;;;;;;;;;5.90;99.90;;;;;;4952896;28;19940;-74
2021/03/17 09:25:15;;;;;;;;;;;5.80;99.90;;;;;;4969617;28;19949;-75
2021/03/17 09:27:53;;;;;;;;;;;5.90;99.90;;;;;;4947769;28;20050;-74
2021/03/17 09:30:19;;;;;;;;;;;6.00;99.90;;;;;;4952711;28;20735;-74
2021/03/17 09:32:47;;;;;;;;;;;6.00;99.90;;;;;;4970009;28;20328;-74
2021/03/17 09:35:16;;;;;;;;;;;6.00;99.90;;;;;;4952388;28;19945;-74
2021/03/17 09:37:43;;;;;;;;;;;6.10;99.90;;;;;;4969646;28;19949;-74
2021/03/17 09:40:11;;;;;;;;;;;6.10;99.90;;;;;;4952441;28;19914;-74
2021/03/17 09:42:37;;;;;;;;;;;6.00;99.90;;;;;;4949378;28;19961;-74
2021/03/17 09:45:04;;;;;;;;;;;6.00;99.90;;;;;;4969638;28;20304;-74
2021/03/17 09:47:30;;;;;;;;;;;6.00;99.90;;;;;;4947921;28;20009;-74
2021/03/17 09:49:56;;;;;;;;;;;6.00;99.90;;;;;;4952722;28;19942;-74
2021/03/17 09:52:24;;;;;;;;;;;6.00;99.90;;;;;;4969724;28;19980;-74
2021/03/17 09:54:50;;;;;;;;;;;6.10;99.90;;;;;;4969232;28;20021;-75
2021/03/17 09:57:15;;;;;;;;;;;6.10;99.90;;;;;;4950794;28;20024;-74
2021/03/17 09:59:42;;;;;;;;;;;6.10;99.90;;;;;;4967607;28;19914;-74
2021/03/17 10:02:17;;;;;;;;;;;6.00;99.90;;;;;;4950461;28;19918;-75
2021/03/17 10:04:48;;;;;;;;;;;5.90;99.90;;;;;;4968864;28;19918;-74
2021/03/17 10:07:13;;;;;;;;;;;5.90;99.90;;;;;;4969561;28;19918;-74
2021/03/17 10:09:39;;;;;;;;;;;5.90;99.90;;;;;;4969775;28;19965;-74
2021/03/17 10:12:08;;;;;;;;;;;5.80;99.90;;;;;;4952704;28;19925;-75
2021/03/17 10:14:37;;;;;;;;;;;5.70;99.90;;;;;;4968776;28;19984;-75
2021/03/17 10:17:06;;;;;;;;;;;5.60;99.90;;;;;;4969386;28;19965;-74
2021/03/17 10:19:32;;;;;;;;;;;5.30;99.90;;;;;;4952061;28;19942;-75
2021/03/17 10:21:57;;;;;;;;;;;5.20;99.90;;;;;;4968946;28;19914;-75
2021/03/17 10:24:29;;;;;;;;;;;5.10;99.90;;;;;;4969176;28;19921;-75
2021/03/17 10:26:55;;;;;;;;;;;5.10;99.90;;;;;;4969522;28;19968;-74
2021/03/17 10:29:20;;;;;;;;;;;5.10;99.90;;;;;;4969087;28;19945;-75
2021/03/17 10:31:47;;;;;;;;;;;4.90;99.90;;;;;;4969540;28;20334;-75
2021/03/17 10:34:15;;;;;;;;;;;4.70;99.90;;;;;;4951011;28;20367;-75
2021/03/17 10:36:41;;;;;;;;;;;4.70;99.90;;;;;;4951530;28;19910;-75
2021/03/17 10:39:06;;;;;;;;;;;4.70;99.90;;;;;;4951127;28;19914;-75
2021/03/17 10:41:38;;;;;;;;;;;4.70;99.90;;;;;;4968061;28;19918;-75
2021/03/17 10:44:12;;;;;;;;;;;4.80;99.90;;;;;;4964938;28;19914;-75
2021/03/17 10:46:57;;;;;;;;;;;4.80;99.90;;;;;;4969950;28;20472;-74
2021/03/17 10:49:23;;;;;;;;;;;4.70;99.90;;;;;;4964533;28;19965;-74
2021/03/17 10:51:54;;;;;;;;;;;4.60;99.90;;;;;;4971010;28;20000;-75
2021/03/17 10:54:27;;;;;;;;;;;4.60;99.90;;;;;;4968484;28;19914;-75
2021/03/17 10:56:52;;;;;;;;;;;4.50;99.90;;;;;;4952519;28;19917;-75
2021/03/17 10:59:27;;;;;;;;;;;4.50;99.90;;;;;;4968825;28;19910;-75
2021/03/17 11:02:11;;;;;;;;;;;4.40;99.90;;;;;;4968202;28;19918;-75
2021/03/17 11:04:37;;;;;;;;;;;4.50;99.90;;;;;;4968476;28;19996;-75
2021/03/17 11:07:02;;;;;;;;;;;4.50;99.90;;;;;;4936792;28;20352;-77
2021/03/17 11:09:30;;;;;;;;;;;4.50;99.90;;;;;;4969415;28;20009;-78
2021/03/17 11:11:56;;;;;;;;;;;4.50;99.90;;;;;;4936062;28;20248;-77
2021/03/17 11:14:36;;;;;;;;;;;4.40;99.90;;;;;;4969135;28;19914;-75
2021/03/17 11:17:03;;;;;;;;;;;4.40;99.90;;;;;;4950205;28;19968;-75
2021/03/17 11:19:28;;;;;;;;;;;4.40;99.90;;;;;;4969476;28;20385;-75
2021/03/17 11:21:54;;;;;;;;;;;4.40;99.90;;;;;;4626286;28;10000528;-75
2021/03/17 11:24:20;;;;;;;;;;;4.40;99.90;;;;;;4949520;28;19914;-75
2021/03/17 11:26:45;;;;;;;;;;;4.40;99.90;;;;;;4949275;28;19921;-75
2021/03/17 11:29:20;;;;;;;;;;;4.50;99.90;;;;;;4965552;28;20481;-75
2021/03/17 11:31:46;;;;;;;;;;;4.60;99.90;;;;;;4945507;28;20008;-75
2021/03/17 11:34:15;;;;;;;;;;;4.80;99.90;;;;;;4966382;28;19949;-76
2021/03/17 11:36:44;;;;;;;;;;;4.80;99.90;;;;;;4657588;28;9999946;-74
2021/03/17 11:39:13;;;;;;;;;;;5.00;99.90;;;;;;4966278;28;19925;-79
2021/03/17 11:41:43;;;;;;;;;;;5.10;99.90;;;;;;4946593;28;19914;-79
2021/03/17 11:44:09;;;;;;;;;;;5.20;99.90;;;;;;4967144;28;19922;-75
2021/03/17 11:46:34;;;;;;;;;;;5.30;99.90;;;;;;4933622;28;20026;-75
2021/03/17 11:49:00;;;;;;;;;;;5.20;99.90;;;;;;4965316;28;20038;-75
2021/03/17 11:51:25;;;;;;;;;;;5.30;99.90;;;;;;4964545;28;19972;-74
2021/03/17 11:53:51;;;;;;;;;;;5.40;99.90;;;;;;4965715;28;19917;-75
2021/03/17 11:56:17;;;;;;;;;;;5.70;99.90;;;;;;4948544;28;20738;-75
2021/03/17 11:58:45;;;;;;;;;;;5.90;99.90;;;;;;4950551;28;19914;-75
2021/03/17 12:01:11;;;;;;;;;;;6.10;99.90;;;;;;4947012;28;19916;-74
2021/03/17 12:03:37;;;;;;;;;;;6.20;99.90;;;;;;4949590;28;19930;-74
2021/03/17 12:06:05;;;;;;;;;;;6.20;99.90;;;;;;4967952;28;19950;-74
2021/03/17 12:08:32;;;;;;;;;;;6.20;99.90;;;;;;4966458;28;19913;-74
2021/03/17 12:11:03;;;;;;;;;;;6.10;99.90;;;;;;4968277;28;19972;-74
2021/03/17 12:13:31;;;;;;;;;;;6.10;99.90;;;;;;4950575;28;19918;-74
2021/03/17 12:15:56;;;;;;;;;;;6.10;99.90;;;;;;4967764;28;19919;-75
2021/03/17 12:18:25;;;;;;;;;;;6.00;99.90;;;;;;4966881;28;19909;-74
2021/03/17 12:20:50;;;;;;;;;;;6.00;99.90;;;;;;4968012;28;19910;-74
2021/03/17 12:23:18;;;;;;;;;;;6.10;99.90;;;;;;4970405;28;19918;-74
2021/03/17 12:25:44;;;;;;;;;;;6.10;99.90;;;;;;4970308;28;19929;-74
2021/03/17 12:28:12;;;;;;;;;;;6.10;99.90;;;;;;4971517;28;20322;-75
2021/03/17 12:30:38;;;;;;;;;;;6.10;99.90;;;;;;4970802;28;20004;-75
2021/03/17 12:33:06;;;;;;;;;;;6.20;99.90;;;;;;4954200;28;20619;-75
2021/03/17 12:35:34;;;;;;;;;;;6.20;99.90;;;;;;4937081;28;19918;-75
2021/03/17 12:38:00;;;;;;;;;;;6.10;99.90;;;;;;4971453;28;19910;-74
2021/03/17 12:40:30;;;;;;;;;;;6.10;99.90;;;;;;4970801;28;19928;-75
2021/03/17 12:42:56;;;;;;;;;;;6.20;99.90;;;;;;4953427;28;19984;-75
2021/03/17 12:45:24;;;;;;;;;;;6.20;99.90;;;;;;4970565;28;19921;-75
2021/03/17 12:47:52;;;;;;;;;;;6.20;99.90;;;;;;4937577;28;19941;-74
2021/03/17 12:50:18;;;;;;;;;;;6.20;99.90;;;;;;4971977;28;19921;-74
2021/03/17 12:52:44;;;;;;;;;;;6.20;99.90;;;;;;4954775;28;19964;-74
2021/03/17 12:55:10;;;;;;;;;;;6.20;99.90;;;;;;4950806;28;19953;-74
2021/03/17 12:57:36;;;;;;;;;;;6.20;99.90;;;;;;4972169;28;19950;-74
2021/03/17 13:00:07;;;;;;;;;;;6.20;99.90;;;;;;4955095;28;19997;-74
2021/03/17 13:02:33;;;;;;;;;;;6.20;99.90;;;;;;4969663;28;20008;-74
2021/03/17 13:04:59;;;;;;;;;;;6.20;99.90;;;;;;4954295;28;20008;-74
2021/03/17 13:07:24;;;;;;;;;;;6.10;99.40;;;;;;4969160;28;20344;-75
2021/03/17 13:09:50;;;;;;;;;;;6.00;97.30;;;;;;4970556;28;19918;-74
2021/03/17 13:12:15;;;;;;;;;;;5.80;96.10;;;;;;4971608;28;19956;-74
2021/03/17 13:14:43;;;;;;;;;;;5.70;99.60;;;;;;4970394;28;19914;-74
2021/03/17 13:17:09;;;;;;;;;;;5.60;99.90;;;;;;4953002;28;19917;-74
2021/03/17 13:19:34;;;;;;;;;;;5.60;99.90;;;;;;4949598;28;19961;-74
2021/03/17 13:22:00;;;;;;;;;;;5.60;99.90;;;;;;4972525;28;19914;-74
2021/03/17 13:24:25;;;;;;;;;;;5.70;99.90;;;;;;4970753;28;20267;-74
2021/03/17 13:26:51;;;;;;;;;;;5.70;99.90;;;;;;4971925;28;19918;-74
2021/03/17 13:29:19;;;;;;;;;;;5.60;98.60;;;;;;4971766;28;20123;-74
2021/03/17 13:31:44;;;;;;;;;;;5.60;99.90;;;;;;4970149;28;20005;-74
2021/03/17 13:34:10;;;;;;;;;;;5.60;97.70;;;;;;4969815;28;19997;-74
2021/03/17 13:36:36;;;;;;;;;;;5.60;98.60;;;;;;4954122;28;19984;-74
2021/03/17 13:39:02;;;;;;;;;;;5.60;99.90;;;;;;4970687;28;19914;-74
2021/03/17 13:41:31;;;;;;;;;;;5.60;97.60;;;;;;4969868;28;19910;-73
2021/03/17 13:43:59;;;;;;;;;;;5.60;97.40;;;;;;4950433;28;19918;-74
2021/03/17 13:46:25;;;;;;;;;;;5.60;99.00;;;;;;4969770;28;19948;-74
2021/03/17 13:48:50;;;;;;;;;;;5.60;99.30;;;;;;4970811;28;20496;-74
2021/03/17 13:51:16;;;;;;;;;;;5.60;95.00;;;;;;4937143;28;19925;-74
2021/03/17 13:53:41;;;;;;;;;;;5.60;95.50;;;;;;4954021;28;20164;-74
2021/03/17 13:56:07;;;;;;;;;;;5.70;97.60;;;;;;4969925;28;19918;-74
2021/03/17 13:58:32;;;;;;;;;;;5.70;95.30;;;;;;4970579;28;19918;-74
2021/03/17 14:01:00;;;;;;;;;;;5.80;95.40;;;;;;4969475;28;20482;-74
2021/03/17 14:03:28;;;;;;;;;;;5.80;92.30;;;;;;4951428;28;19918;-73
2021/03/17 14:05:56;;;;;;;;;;;5.80;96.70;;;;;;4968118;28;20028;-74
2021/03/17 14:08:21;;;;;;;;;;;5.90;93.10;;;;;;4970086;28;19961;-73
2021/03/17 14:10:49;;;;;;;;;;;5.90;91.50;;;;;;4970648;28;20351;-74
2021/03/17 14:13:17;;;;;;;;;;;5.90;88.30;;;;;;4967540;28;19921;-74
2021/03/17 14:15:42;;;;;;;;;;;5.90;91.60;;;;;;4968685;28;20373;-74
2021/03/17 14:18:11;;;;;;;;;;;5.90;89.10;;;;;;4970248;28;19953;-74
2021/03/17 14:20:36;;;;;;;;;;;5.90;91.80;;;;;;4966184;28;19980;-73
2021/03/17 14:23:02;;;;;;;;;;;5.80;91.40;;;;;;4970311;28;20468;-74
2021/03/17 14:25:28;;;;;;;;;;;5.80;91.40;;;;;;4952467;28;20051;-74
2021/03/17 14:27:54;;;;;;;;;;;5.70;90.40;;;;;;4969021;28;19957;-74
2021/03/17 14:30:19;;;;;;;;;;;5.60;90.40;;;;;;4969975;28;20540;-74
2021/03/17 14:32:47;;;;;;;;;;;5.60;93.10;;;;;;4936010;28;20358;-74
2021/03/17 14:35:13;;;;;;;;;;;5.60;94.80;;;;;;4970186;28;20356;-74
2021/03/17 14:37:41;;;;;;;;;;;5.50;93.90;;;;;;4948910;28;19924;-73